Time;durP1;ratioP1;P1;durP2;ratioP2;P2;SDS_P1;SDS_P2;PMS_P1;PMS_P2;Temp;Humidity;BMP_temperature;BMP_pressure;BME280_temperature;BME280_humidity;BME280_pressure;Samples;Min_cycle;Max_cycle;Signal;HPM_P1;HPM_P2
2021/09/13 00:00:34;;;;;;;;;;;;;;;18.92;70.56;99194.59;3311176;29;20484;-71
2021/09/13 00:02:17;;;;;;;;;;;;;;;18.92;70.57;99190.03;3311235;29;19935;-70
2021/09/13 00:03:59;;;;;;;;;;;;;;;18.94;70.62;99192.47;3314569;29;19929;-72
2021/09/13 00:05:42;;;;;;;;;;;;;;;18.95;70.51;99199.50;3314990;29;20011;-72
2021/09/13 00:07:23;;;;;;;;;;;;;;;18.96;70.80;99187.63;3314519;29;19936;-73
2021/09/13 00:09:03;;;;;;;;;;;;;;;18.93;70.83;99190.84;3313854;29;20445;-72
2021/09/13 00:10:46;;;;;;;;;;;;;;;18.92;70.48;99192.75;3314752;29;20351;-71
2021/09/13 00:12:27;;;;;;;;;;;;;;;18.91;70.64;99184.88;3314643;29;19935;-72
2021/09/13 00:14:09;;;;;;;;;;;;;;;18.91;70.94;99184.88;3314586;29;20027;-71
2021/09/13 00:15:52;;;;;;;;;;;;;;;18.91;70.63;99187.59;3314792;29;19933;-72
2021/09/13 00:17:33;;;;;;;;;;;;;;;18.90;70.70;99185.97;3314657;29;19933;-71
2021/09/13 00:19:14;;;;;;;;;;;;;;;18.88;70.85;99180.81;3313693;29;19936;-71
2021/09/13 00:20:56;;;;;;;;;;;;;;;18.86;70.78;99182.16;3314694;29;19936;-71
2021/09/13 00:22:37;;;;;;;;;;;;;;;18.85;70.80;99185.94;3314671;29;20020;-71
2021/09/13 00:24:18;;;;;;;;;;;;;;;18.85;70.87;99181.34;3315059;29;20032;-71
2021/09/13 00:26:01;;;;;;;;;;;;;;;18.84;70.84;99178.91;3314573;29;20016;-71
2021/09/13 00:27:42;;;;;;;;;;;;;;;18.81;70.82;99174.84;3314301;29;19929;-71
2021/09/13 00:29:23;;;;;;;;;;;;;;;18.80;70.98;99177.81;3313696;29;19929;-71
2021/09/13 00:31:03;;;;;;;;;;;;;;;18.80;71.07;99169.72;3313952;29;19929;-71
2021/09/13 00:32:44;;;;;;;;;;;;;;;18.80;71.17;99172.41;3314501;29;20039;-72
2021/09/13 00:34:36;;;;;;;;;;;;;;;18.79;71.05;99176.97;3314255;29;19940;-71
2021/09/13 00:36:18;;;;;;;;;;;;;;;18.80;70.89;99175.09;3314407;29;19958;-71
2021/09/13 00:38:00;;;;;;;;;;;;;;;18.82;71.18;99170.25;3314315;29;20513;-71
2021/09/13 00:39:41;;;;;;;;;;;;;;;18.81;71.08;99174.84;3313553;29;19951;-72
2021/09/13 00:41:22;;;;;;;;;;;;;;;18.82;71.05;99175.63;3314465;29;19929;-71
2021/09/13 00:43:03;;;;;;;;;;;;;;;18.82;71.22;99173.78;3314399;29;20445;-71
2021/09/13 00:44:45;;;;;;;;;;;;;;;18.83;70.86;99169.19;3314615;29;19936;-71
2021/09/13 00:46:25;;;;;;;;;;;;;;;18.84;71.04;99170.78;3314383;29;19956;-71
2021/09/13 00:48:06;;;;;;;;;;;;;;;18.84;70.92;99163.50;3313913;29;19929;-71
2021/09/13 00:49:47;;;;;;;;;;;;;;;18.83;71.03;99170.00;3312862;29;20039;-71
2021/09/13 00:51:27;;;;;;;;;;;;;;;18.83;71.13;99177.28;3313698;29;19933;-71
2021/09/13 00:53:08;;;;;;;;;;;;;;;18.81;71.27;99163.22;3301054;30;19930;-71
2021/09/13 00:54:48;;;;;;;;;;;;;;;18.80;70.99;99161.59;3310710;29;19929;-70
2021/09/13 00:56:29;;;;;;;;;;;;;;;18.80;71.02;99161.59;3313931;29;19958;-71
2021/09/13 00:58:09;;;;;;;;;;;;;;;18.79;71.09;99155.38;3313417;29;20032;-71
2021/09/13 00:59:50;;;;;;;;;;;;;;;18.79;71.02;99152.66;3313528;29;19951;-72
2021/09/13 01:01:31;;;;;;;;;;;;;;;18.79;71.33;99160.78;3314196;29;19929;-72
2021/09/13 01:03:11;;;;;;;;;;;;;;;18.79;71.29;99159.97;3314168;29;20323;-72
2021/09/13 01:04:52;;;;;;;;;;;;;;;18.78;71.38;99161.06;3313808;29;19929;-73
2021/09/13 01:06:32;;;;;;;;;;;;;;;18.77;71.43;99145.91;3313475;29;20389;-73
2021/09/13 01:08:13;;;;;;;;;;;;;;;18.77;71.58;99148.59;3313300;29;19956;-72
2021/09/13 01:09:54;;;;;;;;;;;;;;;18.74;71.35;99152.63;3310426;29;19929;-72
2021/09/13 01:11:35;;;;;;;;;;;;;;;18.71;71.39;99143.16;3309934;29;20476;-72
2021/09/13 01:13:15;;;;;;;;;;;;;;;18.69;71.67;99148.03;3310420;29;19929;-72
2021/09/13 01:14:56;;;;;;;;;;;;;;;18.70;71.30;99152.34;3325455;29;20381;-72
2021/09/13 01:16:36;;;;;;;;;;;;;;;18.71;71.58;99150.44;3303196;29;20019;-72
2021/09/13 01:18:17;;;;;;;;;;;;;;;18.71;71.35;99143.16;3323130;29;20387;-73
2021/09/13 01:19:58;;;;;;;;;;;;;;;18.71;71.35;99137.75;3316025;29;19984;-72
2021/09/13 01:21:39;;;;;;;;;;;;;;;18.71;71.31;99143.16;3312304;29;19976;-72
2021/09/13 01:23:20;;;;;;;;;;;;;;;18.71;71.34;99140.44;3310523;29;19932;-72
2021/09/13 01:25:01;;;;;;;;;;;;;;;18.71;71.50;99139.66;3322638;29;19977;-72
2021/09/13 01:26:42;;;;;;;;;;;;;;;18.71;71.40;99135.06;3316120;29;20281;-73
2021/09/13 01:28:24;;;;;;;;;;;;;;;18.71;71.39;99135.06;3312847;29;19936;-73
2021/09/13 01:30:05;;;;;;;;;;;;;;;18.71;71.38;99136.94;3310136;29;19929;-73
2021/09/13 01:31:45;;;;;;;;;;;;;;;18.72;71.42;99139.41;3322033;29;19928;-73
2021/09/13 01:33:26;;;;;;;;;;;;;;;18.71;71.18;99136.94;3325236;29;20337;-72
2021/09/13 01:35:09;;;;;;;;;;;;;;;18.69;71.38;99139.91;3316043;29;19997;-72
2021/09/13 01:36:52;;;;;;;;;;;;;;;18.67;71.55;99142.06;3313219;29;20216;-72
2021/09/13 01:38:33;;;;;;;;;;;;;;;18.65;71.38;99127.19;3312588;29;19964;-72
2021/09/13 01:40:14;;;;;;;;;;;;;;;18.62;71.66;99133.94;3310255;29;19944;-72
2021/09/13 01:41:55;;;;;;;;;;;;;;;18.61;71.53;99137.72;3312614;29;20020;-73
2021/09/13 01:43:40;;;;;;;;;;;;;;;18.61;71.81;99136.88;3312951;29;19929;-73
2021/09/13 01:45:21;;;;;;;;;;;;;;;18.62;71.40;99138.53;3310454;29;20460;-73
2021/09/13 01:47:03;;;;;;;;;;;;;;;18.62;71.66;99135.81;3322532;29;20024;-72
2021/09/13 01:48:43;;;;;;;;;;;;;;;18.63;71.25;99126.66;3315165;29;19929;-73
2021/09/13 01:50:25;;;;;;;;;;;;;;;18.63;71.40;99127.44;3322552;29;20074;-72
2021/09/13 01:52:07;;;;;;;;;;;;;;;18.63;71.58;99124.75;3324498;29;20321;-72
2021/09/13 01:53:48;;;;;;;;;;;;;;;18.63;71.37;99121.25;3325204;29;20023;-74
2021/09/13 01:55:28;;;;;;;;;;;;;;;18.64;71.58;99122.84;3312717;29;19929;-74
2021/09/13 01:57:11;;;;;;;;;;;;;;;18.63;71.23;99134.75;3310291;29;19928;-74
2021/09/13 01:58:53;;;;;;;;;;;;;;;18.63;71.26;99115.84;3322708;29;19929;-74
2021/09/13 02:00:34;;;;;;;;;;;;;;;18.64;71.48;99121.00;3312406;29;19977;-72
2021/09/13 02:02:15;;;;;;;;;;;;;;;18.65;71.42;99125.31;3321339;29;19928;-71
2021/09/13 02:04:02;;;;;;;;;;;;;;;18.65;71.36;99122.59;3302100;29;20496;-72
2021/09/13 02:05:44;;;;;;;;;;;;;;;18.66;70.99;99113.44;3322573;29;19920;-72
2021/09/13 02:07:25;;;;;;;;;;;;;;;18.67;71.17;99115.06;3302389;29;19986;-72
2021/09/13 02:09:06;;;;;;;;;;;;;;;18.67;71.05;99115.06;3297360;30;19921;-71
2021/09/13 02:10:47;;;;;;;;;;;;;;;18.68;71.38;99105.88;3300754;29;20394;-72
2021/09/13 02:12:29;;;;;;;;;;;;;;;18.69;71.20;99102.13;3324008;29;19920;-72
2021/09/13 02:14:10;;;;;;;;;;;;;;;18.71;71.04;99104.53;3312314;29;19935;-71
2021/09/13 02:15:51;;;;;;;;;;;;;;;18.70;71.15;99098.34;3324754;29;19929;-71
2021/09/13 02:17:35;;;;;;;;;;;;;;;18.70;70.93;99097.53;3312143;29;19961;-72
2021/09/13 02:19:17;;;;;;;;;;;;;;;18.69;70.96;99096.72;3310023;29;19956;-72
2021/09/13 02:20:58;;;;;;;;;;;;;;;18.69;71.10;99104.84;3321824;29;19972;-72
2021/09/13 02:22:39;;;;;;;;;;;;;;;18.69;71.38;99090.50;3311412;29;19929;-72
2021/09/13 02:24:20;;;;;;;;;;;;;;;18.67;71.09;99093.47;3312118;29;20015;-72
2021/09/13 02:26:01;;;;;;;;;;;;;;;18.67;71.26;99095.38;3311897;29;19936;-72
2021/09/13 02:27:43;;;;;;;;;;;;;;;18.66;71.19;99097.22;3322161;29;19933;-73
2021/09/13 02:29:25;;;;;;;;;;;;;;;18.64;71.13;99088.59;3315758;29;19961;-73
2021/09/13 02:31:05;;;;;;;;;;;;;;;18.64;71.43;99096.69;3311910;29;19936;-72
2021/09/13 02:32:46;;;;;;;;;;;;;;;18.64;71.37;99098.56;3308936;29;19929;-72
2021/09/13 02:34:27;;;;;;;;;;;;;;;18.63;71.22;99092.34;3324224;29;19928;-70
2021/09/13 02:36:08;;;;;;;;;;;;;;;18.62;71.21;99093.44;3315105;29;20353;-72
2021/09/13 02:37:50;;;;;;;;;;;;;;;18.62;71.47;99096.16;3311936;29;19936;-72
2021/09/13 02:39:31;;;;;;;;;;;;;;;18.61;71.43;99094.53;3309485;29;19925;-72
2021/09/13 02:41:13;;;;;;;;;;;;;;;18.61;71.42;99094.53;3324439;29;20340;-72
2021/09/13 02:42:54;;;;;;;;;;;;;;;18.60;71.38;99084.78;3311573;29;19932;-72
2021/09/13 02:44:34;;;;;;;;;;;;;;;18.59;71.45;99085.88;3309294;29;19972;-72
2021/09/13 02:46:18;;;;;;;;;;;;;;;18.59;71.30;99090.47;3324508;29;19967;-73
2021/09/13 02:48:01;;;;;;;;;;;;;;;18.58;71.26;99094.22;3312044;29;19929;-73
2021/09/13 02:49:41;;;;;;;;;;;;;;;18.55;71.58;99082.06;3309662;29;20491;-72
2021/09/13 02:51:23;;;;;;;;;;;;;;;18.52;71.79;99082.59;3321811;29;20373;-73
2021/09/13 02:53:03;;;;;;;;;;;;;;;18.51;71.58;99078.28;3311326;29;19929;-72
2021/09/13 02:54:46;;;;;;;;;;;;;;;18.50;71.48;99077.44;3299329;29;20410;-71
2021/09/13 02:56:26;;;;;;;;;;;;;;;18.51;71.43;99078.28;3319470;29;19974;-72
2021/09/13 02:58:07;;;;;;;;;;;;;;;18.51;71.64;99081.78;3311910;29;19945;-72
2021/09/13 02:59:50;;;;;;;;;;;;;;;18.52;71.60;99077.19;3312511;29;20309;-72
2021/09/13 03:01:31;;;;;;;;;;;;;;;18.52;71.53;99085.28;3312487;29;19929;-72
2021/09/13 03:03:12;;;;;;;;;;;;;;;18.52;71.63;99078.00;3311377;29;20033;-73
2021/09/13 03:04:52;;;;;;;;;;;;;;;18.54;71.44;99080.47;3311937;29;20023;-74
2021/09/13 03:06:33;;;;;;;;;;;;;;;18.54;71.45;99077.75;3311787;29;20371;-72
2021/09/13 03:08:13;;;;;;;;;;;;;;;18.53;71.32;99071.56;3309157;29;19933;-73
2021/09/13 03:09:54;;;;;;;;;;;;;;;18.54;71.43;99072.34;3312468;29;19984;-73
2021/09/13 03:11:35;;;;;;;;;;;;;;;18.53;71.40;99070.72;3311356;29;19976;-72
2021/09/13 03:13:17;;;;;;;;;;;;;;;18.54;71.62;99077.75;3309206;29;20011;-71
2021/09/13 03:14:58;;;;;;;;;;;;;;;18.55;71.56;99075.88;3311438;29;20365;-72
2021/09/13 03:16:39;;;;;;;;;;;;;;;18.55;71.24;99073.97;3311818;29;20004;-71
2021/09/13 03:18:20;;;;;;;;;;;;;;;18.54;71.35;99069.66;3308840;29;19955;-72
2021/09/13 03:20:01;;;;;;;;;;;;;;;18.53;71.61;99068.03;3309105;29;19967;-73
2021/09/13 03:21:42;;;;;;;;;;;;;;;18.52;71.45;99066.41;3312646;29;20297;-73
2021/09/13 03:23:24;;;;;;;;;;;;;;;18.52;71.56;99071.81;3311845;29;19929;-73
2021/09/13 03:25:05;;;;;;;;;;;;;;;18.51;71.72;99067.50;3321210;29;20389;-72
2021/09/13 03:26:46;;;;;;;;;;;;;;;18.51;71.23;99070.19;3311508;29;19936;-72
2021/09/13 03:28:27;;;;;;;;;;;;;;;18.52;71.33;99066.41;3311095;29;20381;-73
2021/09/13 03:30:08;;;;;;;;;;;;;;;18.53;71.49;99060.75;3321563;29;19936;-73
2021/09/13 03:31:48;;;;;;;;;;;;;;;18.55;71.32;99065.06;3313810;29;20394;-72
2021/09/13 03:33:29;;;;;;;;;;;;;;;18.55;71.54;99060.47;3321632;29;19963;-72
2021/09/13 03:35:10;;;;;;;;;;;;;;;18.58;71.28;99065.34;3310909;29;19971;-73
2021/09/13 03:36:51;;;;;;;;;;;;;;;18.60;71.49;99067.78;3309076;29;19929;-72
2021/09/13 03:38:35;;;;;;;;;;;;;;;18.61;71.26;99067.53;3321541;29;19951;-72
2021/09/13 03:40:16;;;;;;;;;;;;;;;18.61;70.83;99064.84;3311430;29;19940;-72
2021/09/13 03:41:57;;;;;;;;;;;;;;;18.61;71.14;99066.72;3312192;29;19929;-71
2021/09/13 03:43:39;;;;;;;;;;;;;;;18.61;70.83;99064.84;3311454;29;19936;-72
2021/09/13 03:45:19;;;;;;;;;;;;;;;18.62;71.33;99063.75;3316724;29;19929;-73
2021/09/13 03:47:19;;;;;;;;;;;;;;;18.64;70.86;99060.78;3309147;29;19970;-73
2021/09/13 03:49:04;;;;;;;;;;;;;;;18.65;71.15;99059.72;3310382;29;20401;-73
2021/09/13 03:50:44;;;;;;;;;;;;;;;18.67;71.29;99055.69;3309852;29;20024;-73
2021/09/13 03:52:25;;;;;;;;;;;;;;;18.70;70.97;99055.16;3309569;29;21281;-74
2021/09/13 03:54:06;;;;;;;;;;;;;;;18.72;71.04;99047.59;3308342;29;19929;-72
2021/09/13 03:55:47;;;;;;;;;;;;;;;18.74;70.83;99053.56;3311790;29;19976;-72
2021/09/13 03:57:27;;;;;;;;;;;;;;;18.77;70.80;99059.50;3310607;29;19970;-72
2021/09/13 03:59:09;;;;;;;;;;;;;;;18.82;70.80;99062.25;3296671;30;19930;-73
2021/09/13 04:00:49;;;;;;;;;;;;;;;18.84;70.80;99066.28;3318817;29;20408;-73
2021/09/13 04:02:38;;;;;;;;;;;;;;;18.86;70.81;99057.94;3311336;29;19939;-73
2021/09/13 04:04:24;;;;;;;;;;;;;;;18.85;70.69;99067.13;3323957;29;19920;-73
2021/09/13 04:06:05;;;;;;;;;;;;;;;18.85;70.59;99061.72;3310508;29;19929;-73
2021/09/13 04:08:11;;;;;;;;;;;;;;;18.85;70.74;99056.34;3312170;29;20386;-72
2021/09/13 04:10:21;;;;;;;;;;;;;;;18.85;70.60;99061.72;3310971;29;19937;-72
2021/09/13 04:12:22;;;;;;;;;;;;;;;18.87;70.67;99062.25;3311846;29;19944;-71
2021/09/13 04:14:36;;;;;;;;;;;;;;;18.88;70.50;99058.50;3311156;29;20035;-71
2021/09/13 04:16:36;;;;;;;;;;;;;;;18.87;70.59;99064.97;3311296;29;19937;-74
2021/09/13 04:18:26;;;;;;;;;;;;;;;18.87;70.61;99060.41;3311048;29;20458;-74
2021/09/13 04:20:34;;;;;;;;;;;;;;;18.88;70.62;99055.81;3312171;29;19979;-74
2021/09/13 04:22:30;;;;;;;;;;;;;;;18.88;70.31;99062.00;3311635;29;19971;-72
2021/09/13 04:24:35;;;;;;;;;;;;;;;18.90;70.46;99059.06;3312540;29;19936;-71
2021/09/13 04:26:30;;;;;;;;;;;;;;;18.90;70.58;99050.94;3310659;29;20494;-72
2021/09/13 04:28:29;;;;;;;;;;;;;;;18.91;70.58;99056.06;3312056;29;20302;-75
2021/09/13 04:30:25;;;;;;;;;;;;;;;18.94;70.56;99065.53;3311177;29;20448;-76
2021/09/13 04:32:34;;;;;;;;;;;;;;;18.96;70.23;99052.59;3311959;29;19928;-74
2021/09/13 04:34:24;;;;;;;;;;;;;;;18.97;70.24;99056.91;3311616;29;20433;-75
2021/09/13 04:36:36;;;;;;;;;;;;;;;18.95;70.46;99046.38;3310269;29;19933;-73
2021/09/13 04:38:51;;;;;;;;;;;;;;;18.96;70.41;99047.97;3321674;29;19932;-76
2021/09/13 04:40:54;;;;;;;;;;;;;;;18.99;70.37;99051.25;3310882;29;20329;-76
2021/09/13 04:43:00;;;;;;;;;;;;;;;18.99;70.20;99046.66;3300317;29;20389;-74
2021/09/13 04:44:52;;;;;;;;;;;;;;;19.00;70.31;99045.59;3325392;29;20027;-75
2021/09/13 04:46:51;;;;;;;;;;;;;;;19.02;70.27;99042.59;3313885;29;19957;-75
2021/09/13 04:48:51;;;;;;;;;;;;;;;19.03;69.93;99038.84;3319938;29;20412;-75
2021/09/13 04:50:52;;;;;;;;;;;;;;;19.04;69.84;99033.16;3312880;29;20300;-75
2021/09/13 04:52:58;;;;;;;;;;;;;;;19.04;69.94;99035.84;3311690;29;19928;-74
2021/09/13 04:54:38;;;;;;;;;;;;;;;19.05;69.82;99033.97;3313508;29;19929;-75
2021/09/13 04:56:19;;;;;;;;;;;;;;;19.06;69.83;99031.00;3312673;29;19929;-74
2021/09/13 04:58:00;;;;;;;;;;;;;;;19.08;69.85;99036.97;3309549;29;19925;-75
2021/09/13 04:59:41;;;;;;;;;;;;;;;19.09;69.67;99035.88;3322868;29;20474;-74
2021/09/13 05:01:22;;;;;;;;;;;;;;;19.10;69.81;99029.41;3314134;29;19936;-75
2021/09/13 05:03:03;;;;;;;;;;;;;;;19.14;69.34;99035.88;3313202;29;19929;-75
2021/09/13 05:04:43;;;;;;;;;;;;;;;19.16;69.63;99030.22;3313818;29;19948;-74
2021/09/13 05:06:24;;;;;;;;;;;;;;;19.15;69.42;99032.13;3312591;29;19976;-75
2021/09/13 05:08:08;;;;;;;;;;;;;;;19.18;69.49;99036.19;3322107;29;19929;-74
2021/09/13 05:09:48;;;;;;;;;;;;;;;19.23;69.71;99029.94;3313309;29;20507;-74
2021/09/13 05:11:30;;;;;;;;;;;;;;;19.27;69.25;99036.44;3322943;29;20377;-73
2021/09/13 05:13:10;;;;;;;;;;;;;;;19.30;69.05;99030.50;3315888;29;20382;-72
2021/09/13 05:14:51;;;;;;;;;;;;;;;19.34;69.00;99032.41;3312380;29;19946;-72
2021/09/13 05:16:33;;;;;;;;;;;;;;;19.38;69.01;99029.97;3313703;29;19928;-73
2021/09/13 05:18:14;;;;;;;;;;;;;;;19.44;69.14;99030.78;3312510;29;19929;-73
2021/09/13 05:19:55;;;;;;;;;;;;;;;19.50;68.85;99030.53;3310506;29;19929;-73
2021/09/13 05:21:38;;;;;;;;;;;;;;;19.56;68.70;99024.03;3324803;29;19932;-74
2021/09/13 05:23:19;;;;;;;;;;;;;;;19.60;68.38;99024.31;3324918;29;19929;-74
2021/09/13 05:25:01;;;;;;;;;;;;;;;19.65;68.16;99020.81;3313137;29;19936;-74
2021/09/13 05:26:43;;;;;;;;;;;;;;;19.71;68.06;99020.56;3325080;29;20011;-73
2021/09/13 05:28:23;;;;;;;;;;;;;;;19.79;67.97;99024.63;3315209;29;19929;-74
2021/09/13 05:30:04;;;;;;;;;;;;;;;19.88;68.06;99020.28;3312143;29;20457;-73
2021/09/13 05:31:47;;;;;;;;;;;;;;;19.96;67.84;99017.03;3321956;29;19929;-74
2021/09/13 05:33:29;;;;;;;;;;;;;;;20.03;67.98;99016.72;3312384;29;19929;-73
2021/09/13 05:35:09;;;;;;;;;;;;;;;20.08;67.69;99022.13;3309893;29;20290;-77
2021/09/13 05:36:50;;;;;;;;;;;;;;;20.10;67.56;99016.47;3324665;29;20019;-72
2021/09/13 05:38:33;;;;;;;;;;;;;;;20.10;67.47;99021.88;3324615;29;20320;-72
2021/09/13 05:40:23;;;;;;;;;;;;;;;20.12;67.35;99015.09;3311863;29;20436;-74
2021/09/13 05:42:04;;;;;;;;;;;;;;;20.14;67.17;99012.13;3322583;29;19929;-72
2021/09/13 05:43:51;;;;;;;;;;;;;;;20.17;66.97;99017.81;3299809;30;20270;-70
2021/09/13 05:45:32;;;;;;;;;;;;;;;20.22;66.62;99015.09;3307090;29;19928;-70
2021/09/13 05:47:12;;;;;;;;;;;;;;;20.31;66.61;99009.09;3310028;29;19930;-70
2021/09/13 05:48:53;;;;;;;;;;;;;;;20.44;66.31;99013.94;3309026;29;19929;-71
2021/09/13 05:50:34;;;;;;;;;;;;;;;20.57;66.07;99012.56;3308998;29;20409;-71
2021/09/13 05:52:14;;;;;;;;;;;;;;;20.71;65.89;99010.09;3321577;29;19935;-71
2021/09/13 05:53:59;;;;;;;;;;;;;;;20.81;65.53;99005.44;3314338;29;19929;-72
2021/09/13 05:55:43;;;;;;;;;;;;;;;20.93;65.07;99005.06;3312013;29;20306;-71
2021/09/13 05:57:25;;;;;;;;;;;;;;;21.06;64.90;99006.34;3322745;29;19933;-71
2021/09/13 05:59:05;;;;;;;;;;;;;;;21.24;64.42;99002.97;3315061;29;20282;-70
2021/09/13 06:00:46;;;;;;;;;;;;;;;21.43;63.90;98999.66;3306078;29;19925;-70
2021/09/13 06:02:27;;;;;;;;;;;;;;;21.59;63.86;99003.84;3309157;29;19963;-72
2021/09/13 06:04:15;;;;;;;;;;;;;;;21.78;63.59;99002.03;3324959;29;20231;-71
2021/09/13 06:05:57;;;;;;;;;;;;;;;21.89;62.68;98996.53;3312256;29;19929;-70
2021/09/13 06:07:39;;;;;;;;;;;;;;;21.94;62.51;99001.91;3309639;29;19937;-71
2021/09/13 06:09:21;;;;;;;;;;;;;;;21.93;62.62;98998.38;3322168;29;19951;-74
2021/09/13 06:11:01;;;;;;;;;;;;;;;21.94;62.84;98996.47;3313785;29;20358;-75
2021/09/13 06:12:42;;;;;;;;;;;;;;;21.87;62.36;98993.31;3323578;29;19929;-74
2021/09/13 06:14:24;;;;;;;;;;;;;;;21.80;62.22;98996.34;3312193;29;20312;-76
2021/09/13 06:16:08;;;;;;;;;;;;;;;21.74;62.40;98995.59;3324244;29;19983;-74
2021/09/13 06:17:50;;;;;;;;;;;;;;;21.70;62.99;98997.25;3300720;29;19927;-74
2021/09/13 06:19:33;;;;;;;;;;;;;;;21.64;62.42;99001.09;3309736;29;19929;-75
2021/09/13 06:21:14;;;;;;;;;;;;;;;21.57;62.43;98997.91;3308323;29;19944;-75
2021/09/13 06:22:55;;;;;;;;;;;;;;;21.53;62.02;98999.56;3321815;29;19939;-75
2021/09/13 06:24:41;;;;;;;;;;;;;;;21.53;62.30;99010.41;3313934;29;20278;-76
2021/09/13 06:26:23;;;;;;;;;;;;;;;21.54;62.18;99012.84;3310789;29;20027;-75
2021/09/13 06:28:04;;;;;;;;;;;;;;;21.56;62.13;98999.00;3308882;29;20305;-75
2021/09/13 06:29:46;;;;;;;;;;;;;;;21.55;61.94;99005.50;3311317;29;20441;-73
2021/09/13 06:31:26;;;;;;;;;;;;;;;21.55;62.04;99008.22;3309320;29;20031;-76
2021/09/13 06:33:08;;;;;;;;;;;;;;;21.54;62.28;99001.19;3321934;29;20323;-76
2021/09/13 06:34:52;;;;;;;;;;;;;;;21.52;61.71;98993.31;3310668;29;19933;-77
2021/09/13 06:36:45;;;;;;;;;;;;;;;21.50;61.79;99000.13;3320153;29;19928;-76
2021/09/13 06:38:26;;;;;;;;;;;;;;;21.50;61.51;98995.53;3313009;29;20020;-73
2021/09/13 06:40:07;;;;;;;;;;;;;;;21.53;61.65;98994.97;3311125;29;19995;-73
2021/09/13 06:41:50;;;;;;;;;;;;;;;21.58;61.56;98996.78;3312178;29;19924;-74
2021/09/13 06:43:43;;;;;;;;;;;;;;;21.67;61.51;99003.25;3310077;29;19972;-74
2021/09/13 06:45:27;;;;;;;;;;;;;;;21.74;61.35;98998.31;3310693;29;19929;-74
2021/09/13 06:47:10;;;;;;;;;;;;;;;21.76;61.25;99004.25;3312066;29;20892;-74
2021/09/13 06:48:51;;;;;;;;;;;;;;;21.74;61.10;98992.88;3311158;29;19964;-76
2021/09/13 06:50:32;;;;;;;;;;;;;;;21.71;61.15;99000.75;3309689;29;19952;-74
2021/09/13 06:52:12;;;;;;;;;;;;;;;21.65;61.10;98994.56;3321590;29;19977;-75
2021/09/13 06:53:53;;;;;;;;;;;;;;;21.60;61.32;98999.22;3311782;29;19930;-74
2021/09/13 06:55:37;;;;;;;;;;;;;;;21.51;61.26;98996.34;3312342;29;20439;-73
2021/09/13 06:57:18;;;;;;;;;;;;;;;21.44;60.84;98996.66;3311190;29;20305;-72
2021/09/13 06:58:58;;;;;;;;;;;;;;;21.39;61.18;98991.25;3309815;29;20023;-74
2021/09/13 07:00:39;;;;;;;;;;;;;;;21.37;61.52;98989.91;3311780;29;19936;-75
2021/09/13 07:02:20;;;;;;;;;;;;;;;21.33;61.18;98995.88;3310681;29;19936;-73
2021/09/13 07:04:01;;;;;;;;;;;;;;;21.32;61.45;98991.56;3310600;29;20015;-75
2021/09/13 07:05:42;;;;;;;;;;;;;;;21.31;61.58;98979.09;3311165;29;19925;-73
2021/09/13 07:07:22;;;;;;;;;;;;;;;21.31;61.23;98981.78;3310692;29;20364;-74
2021/09/13 07:09:03;;;;;;;;;;;;;;;21.34;61.07;98975.00;3311640;29;19929;-73
2021/09/13 07:10:44;;;;;;;;;;;;;;;21.37;60.95;98985.28;3310432;29;19933;-76
2021/09/13 07:12:26;;;;;;;;;;;;;;;21.42;60.85;98979.84;3310985;29;20012;-73
2021/09/13 07:14:07;;;;;;;;;;;;;;;21.48;60.80;98969.78;3313010;29;19929;-75
2021/09/13 07:15:48;;;;;;;;;;;;;;;21.55;60.51;98970.25;3311945;29;20329;-76
2021/09/13 07:17:31;;;;;;;;;;;;;;;21.62;60.25;98976.16;3312514;29;19933;-75
2021/09/13 07:19:13;;;;;;;;;;;;;;;21.69;60.23;98968.50;3312281;29;19989;-75
2021/09/13 07:20:54;;;;;;;;;;;;;;;21.74;59.80;98968.47;3311605;29;19986;-74
2021/09/13 07:22:34;;;;;;;;;;;;;;;21.80;59.94;98971.94;3311394;29;20342;-77
2021/09/13 07:24:20;;;;;;;;;;;;;;;21.89;59.79;98967.50;3312521;29;19929;-71
2021/09/13 07:26:01;;;;;;;;;;;;;;;22.01;59.34;98964.38;3311041;29;20531;-70
2021/09/13 07:27:41;;;;;;;;;;;;;;;22.13;59.29;98966.72;3310615;29;20031;-71
2021/09/13 07:29:22;;;;;;;;;;;;;;;22.23;58.85;98960.38;3312258;29;19929;-71
2021/09/13 07:31:02;;;;;;;;;;;;;;;22.32;58.93;98966.78;3311295;29;20444;-72
2021/09/13 07:32:43;;;;;;;;;;;;;;;22.45;58.67;98960.66;3312144;29;19937;-72
2021/09/13 07:34:23;;;;;;;;;;;;;;;22.71;57.65;98954.88;3311295;29;20474;-72
2021/09/13 07:36:04;;;;;;;;;;;;;;;23.08;57.32;98962.28;3310843;29;19929;-72
2021/09/13 07:38:04;;;;;;;;;;;;;;;23.57;56.17;98963.66;3309771;29;20402;-73
2021/09/13 07:39:45;;;;;;;;;;;;;;;23.97;55.42;98960.53;3310241;29;19929;-72
2021/09/13 07:41:25;;;;;;;;;;;;;;;24.39;54.58;98951.25;3311103;29;19979;-72
2021/09/13 07:43:08;;;;;;;;;;;;;;;24.77;54.00;98948.31;3311096;29;20023;-73
2021/09/13 07:44:49;;;;;;;;;;;;;;;25.09;53.22;98947.28;3311398;29;19979;-71
2021/09/13 07:46:30;;;;;;;;;;;;;;;25.36;52.50;98954.59;3311690;29;19929;-73
2021/09/13 07:48:10;;;;;;;;;;;;;;;25.60;51.46;98946.06;3320097;29;20502;-72
2021/09/13 07:49:51;;;;;;;;;;;;;;;25.88;51.78;98951.38;3318539;29;19932;-72
2021/09/13 07:51:31;;;;;;;;;;;;;;;26.17;49.69;98947.31;3310751;29;19935;-73
2021/09/13 07:53:12;;;;;;;;;;;;;;;26.42;49.49;98943.06;3318960;29;19928;-72
2021/09/13 07:54:55;;;;;;;;;;;;;;;26.69;49.91;98942.00;3323078;29;20373;-73
2021/09/13 07:56:35;;;;;;;;;;;;;;;26.88;48.34;98942.53;3316153;29;20398;-72
2021/09/13 07:58:16;;;;;;;;;;;;;;;27.12;48.78;98941.22;3324002;29;19921;-72
2021/09/13 07:59:56;;;;;;;;;;;;;;;27.34;48.13;98941.09;3320834;29;19981;-73
2021/09/13 08:01:39;;;;;;;;;;;;;;;27.58;47.98;98935.06;3308850;29;19986;-73
2021/09/13 08:03:19;;;;;;;;;;;;;;;27.84;46.69;98935.00;3320795;29;20406;-73
2021/09/13 08:05:00;;;;;;;;;;;;;;;28.14;46.72;98928.75;3322087;29;19921;-73
2021/09/13 08:06:41;;;;;;;;;;;;;;;28.45;46.73;98933.97;3319667;29;19928;-72
2021/09/13 08:08:22;;;;;;;;;;;;;;;28.75;45.67;98936.66;3307905;29;19932;-73
2021/09/13 08:10:06;;;;;;;;;;;;;;;29.07;45.47;98930.47;3310485;29;20032;-75
2021/09/13 08:11:48;;;;;;;;;;;;;;;29.41;44.51;98928.53;3322312;29;20394;-73
2021/09/13 08:13:29;;;;;;;;;;;;;;;29.75;44.77;98932.84;3322127;29;19960;-74
2021/09/13 08:15:11;;;;;;;;;;;;;;;29.98;44.15;98926.94;3315746;29;19937;-74
2021/09/13 08:16:53;;;;;;;;;;;;;;;30.10;44.02;98928.88;3314412;29;19937;-75
2021/09/13 08:18:34;;;;;;;;;;;;;;;30.16;43.42;98931.06;3313271;29;19972;-75
2021/09/13 08:20:18;;;;;;;;;;;;;;;30.22;42.61;98920.63;3311066;29;19975;-73
2021/09/13 08:22:00;;;;;;;;;;;;;;;30.32;42.68;98922.94;3310542;29;19933;-74
2021/09/13 08:23:42;;;;;;;;;;;;;;;30.48;42.76;98925.78;3313088;29;19929;-74
2021/09/13 08:25:23;;;;;;;;;;;;;;;30.72;42.46;98921.38;3320168;29;20024;-72
2021/09/13 08:27:18;;;;;;;;;;;;;;;31.13;41.47;98914.72;3312993;29;19929;-73
2021/09/13 08:28:58;;;;;;;;;;;;;;;31.58;41.67;98916.38;3313892;29;19936;-72
2021/09/13 08:30:41;;;;;;;;;;;;;;;32.01;40.14;98914.75;3312264;29;19928;-73
2021/09/13 08:32:22;;;;;;;;;;;;;;;32.43;39.71;98911.38;3313292;29;19929;-73
2021/09/13 08:34:05;;;;;;;;;;;;;;;32.84;38.64;98911.06;3312726;29;20024;-73
2021/09/13 08:35:55;;;;;;;;;;;;;;;33.20;38.86;98902.38;3311589;29;19929;-73
2021/09/13 08:37:38;;;;;;;;;;;;;;;33.49;38.37;98908.44;3312409;29;19929;-74
2021/09/13 08:39:18;;;;;;;;;;;;;;;33.69;37.11;98906.44;3311640;29;19929;-73
2021/09/13 08:41:01;;;;;;;;;;;;;;;33.79;38.67;98905.81;3311067;29;20075;-73
2021/09/13 08:42:46;;;;;;;;;;;;;;;33.92;37.08;98905.63;3310874;29;19929;-72
2021/09/13 08:44:26;;;;;;;;;;;;;;;34.04;36.40;98905.44;3308684;29;19933;-73
2021/09/13 08:46:18;;;;;;;;;;;;;;;34.22;36.70;98898.22;3327037;29;20242;-72
2021/09/13 08:48:06;;;;;;;;;;;;;;;34.41;36.52;98888.22;3319348;29;19964;-74
2021/09/13 08:49:51;;;;;;;;;;;;;;;34.62;35.37;98894.06;3311103;29;19936;-74
2021/09/13 08:51:33;;;;;;;;;;;;;;;34.88;35.70;98879.38;3312535;29;19929;-72
2021/09/13 08:53:17;;;;;;;;;;;;;;;35.09;35.50;98881.63;3313003;29;20379;-73
2021/09/13 08:54:58;;;;;;;;;;;;;;;35.27;34.68;98878.25;3313282;29;20523;-73
2021/09/13 08:56:42;;;;;;;;;;;;;;;35.43;33.01;98876.00;3312565;29;19925;-74
2021/09/13 08:58:22;;;;;;;;;;;;;;;35.55;33.51;98874.91;3311888;29;19929;-74